Time;durP1;ratioP1;P1;durP2;ratioP2;P2;SDS_P1;SDS_P2;PMS_P1;PMS_P2;Temp;Humidity;BMP_temperature;BMP_pressure;BME280_temperature;BME280_humidity;BME280_pressure;Samples;Min_cycle;Max_cycle;Signal;HPM_P1;HPM_P2
2023/05/22 00:00:51;;;;;;;33.60;24.70;;;16.30;99.90;;;;;;5111099;28;20051;-28
2023/05/22 00:03:17;;;;;;;33.25;26.42;;;16.20;99.90;;;;;;5112427;28;20047;-28
2023/05/22 00:05:44;;;;;;;33.15;25.10;;;16.20;99.90;;;;;;5086170;28;20048;-29
2023/05/22 00:08:10;;;;;;;36.63;26.08;;;16.20;99.90;;;;;;5094958;28;20055;-29
2023/05/22 00:10:39;;;;;;;32.33;25.58;;;16.10;99.90;;;;;;5095628;28;20040;-29
2023/05/22 00:13:05;;;;;;;37.25;27.73;;;16.10;99.90;;;;;;5106853;28;20050;-28
2023/05/22 00:15:32;;;;;;;33.95;26.00;;;16.00;99.90;;;;;;5109333;28;20072;-28
2023/05/22 00:17:57;;;;;;;29.80;24.25;;;16.00;99.90;;;;;;5102370;28;20138;-28
2023/05/22 00:20:23;;;;;;;36.40;28.27;;;16.00;99.90;;;;;;5114139;28;20111;-28
2023/05/22 00:22:49;;;;;;;34.95;26.55;;;16.00;99.90;;;;;;5091324;28;20403;-28
2023/05/22 00:25:17;;;;;;;31.20;26.67;;;16.00;99.90;;;;;;5107195;28;20054;-29
2023/05/22 00:27:43;;;;;;;35.20;27.58;;;16.00;99.90;;;;;;5114026;28;20092;-26
2023/05/22 00:30:09;;;;;;;33.42;27.15;;;15.90;99.90;;;;;;5094973;28;20047;-29
2023/05/22 00:32:35;;;;;;;35.67;28.40;;;15.80;99.90;;;;;;5094706;28;20083;-28
2023/05/22 00:35:01;;;;;;;34.78;25.98;;;15.80;99.90;;;;;;5095183;28;20450;-28
2023/05/22 00:37:26;;;;;;;30.35;25.45;;;15.80;99.90;;;;;;5094961;28;20085;-28
2023/05/22 00:39:52;;;;;;;37.65;27.98;;;15.70;99.90;;;;;;5094289;28;20148;-28
2023/05/22 00:42:18;;;;;;;36.95;27.67;;;15.80;99.90;;;;;;5114452;28;20051;-28
2023/05/22 00:44:44;;;;;;;37.47;29.48;;;15.80;99.90;;;;;;5114626;28;20050;-29
2023/05/22 00:47:09;;;;;;;35.60;29.15;;;15.80;99.90;;;;;;5111965;28;20524;-29
2023/05/22 00:49:35;;;;;;;39.13;30.05;;;15.70;99.90;;;;;;5113496;27;20047;-28
2023/05/22 00:52:01;;;;;;;37.33;28.98;;;15.70;99.90;;;;;;5108512;28;20043;-28
2023/05/22 00:54:29;;;;;;;35.45;28.90;;;15.80;99.90;;;;;;5095418;28;20406;-28
2023/05/22 00:56:56;;;;;;;33.97;28.35;;;15.80;99.90;;;;;;5103764;28;20122;-29
2023/05/22 00:59:22;;;;;;;33.05;28.20;;;15.80;99.90;;;;;;5095598;28;20478;-28
2023/05/22 01:01:48;;;;;;;35.67;28.58;;;15.80;99.90;;;;;;5095644;28;20044;-28
2023/05/22 01:04:14;;;;;;;38.45;29.23;;;15.90;99.90;;;;;;5112605;28;20051;-28
2023/05/22 01:06:40;;;;;;;35.85;29.98;;;15.90;99.90;;;;;;5113090;28;20054;-29
2023/05/22 01:09:06;;;;;;;36.08;29.13;;;15.80;99.90;;;;;;5112124;28;20404;-28
2023/05/22 01:12:11;;;;;;;35.70;28.55;;;15.80;99.90;;;;;;5114152;28;20047;-28
2023/05/22 01:15:11;;;;;;;35.15;28.88;;;15.80;99.90;;;;;;5108459;28;20204;-28
2023/05/22 01:17:51;;;;;;;37.80;30.15;;;15.70;99.90;;;;;;5104735;28;20506;-28
2023/05/22 01:20:28;;;;;;;39.58;30.77;;;15.70;99.90;;;;;;5111158;28;20040;-27
2023/05/22 01:23:14;;;;;;;40.80;31.40;;;15.70;99.90;;;;;;5111304;28;20039;-28
2023/05/22 01:26:17;;;;;;;38.53;31.98;;;15.70;99.90;;;;;;5106185;28;20071;-28
2023/05/22 01:29:00;;;;;;;38.83;30.50;;;15.70;99.90;;;;;;5097604;28;20062;-28
2023/05/22 01:31:29;;;;;;;39.22;29.90;;;15.60;99.90;;;;;;5113931;28;20052;-28
2023/05/22 01:33:57;;;;;;;40.38;31.05;;;15.60;99.90;;;;;;5112674;28;20043;-28
2023/05/22 01:36:29;;;;;;;44.88;32.33;;;15.60;99.90;;;;;;5113923;28;20043;-28
2023/05/22 01:38:57;;;;;;;42.03;33.28;;;15.60;99.90;;;;;;5098734;28;20051;-28
2023/05/22 01:41:23;;;;;;;49.70;31.88;;;15.60;99.90;;;;;;5109999;28;20036;-28
2023/05/22 01:43:49;;;;;;;40.10;32.58;;;15.60;99.90;;;;;;5103907;28;20440;-28
2023/05/22 01:46:15;;;;;;;38.28;30.55;;;15.50;99.90;;;;;;5117900;28;20043;-28
2023/05/22 01:48:40;;;;;;;42.10;34.00;;;15.50;99.90;;;;;;5118590;28;20127;-28
2023/05/22 01:51:35;;;;;;;43.90;32.53;;;15.50;99.90;;;;;;5099488;28;20040;-28
2023/05/22 01:54:31;;;;;;;45.58;34.47;;;15.50;99.90;;;;;;5118804;28;20054;-28
2023/05/22 01:57:27;;;;;;;42.78;33.75;;;15.50;99.90;;;;;;5098529;28;20042;-28
2023/05/22 02:00:10;;;;;;;42.22;33.05;;;15.50;99.90;;;;;;5102530;28;20394;-28
2023/05/22 02:02:39;;;;;;;41.20;33.10;;;15.50;99.90;;;;;;5115433;28;20421;-29
2023/05/22 02:05:08;;;;;;;42.60;33.05;;;15.50;99.90;;;;;;5116602;28;20043;-28
2023/05/22 02:07:38;;;;;;;39.20;32.17;;;15.50;99.90;;;;;;5115325;28;20082;-28
2023/05/22 02:10:06;;;;;;;42.55;34.28;;;15.50;99.90;;;;;;5117516;28;20074;-28
2023/05/22 02:12:32;;;;;;;39.95;31.10;;;15.50;99.90;;;;;;5115166;28;20050;-28
2023/05/22 02:14:59;;;;;;;47.05;35.08;;;15.50;99.90;;;;;;5115861;28;20086;-28
2023/05/22 02:17:24;;;;;;;43.60;32.72;;;15.50;99.90;;;;;;5113885;28;20048;-27
2023/05/22 02:19:50;;;;;;;44.28;35.13;;;15.60;99.90;;;;;;5117968;28;20387;-28
2023/05/22 02:22:16;;;;;;;46.83;33.50;;;15.60;99.90;;;;;;5113634;28;20493;-28
2023/05/22 02:24:46;;;;;;;40.42;32.92;;;15.60;99.90;;;;;;5100146;28;20118;-29
2023/05/22 02:27:12;;;;;;;41.13;32.90;;;15.50;99.90;;;;;;5106042;28;20043;-28
2023/05/22 02:29:38;;;;;;;42.97;34.40;;;15.60;99.90;;;;;;5117500;28;20546;-28
2023/05/22 02:32:04;;;;;;;42.05;34.33;;;15.50;99.90;;;;;;5100893;28;20079;-28
2023/05/22 02:34:30;;;;;;;41.40;32.97;;;15.60;99.90;;;;;;5100617;28;20478;-28
2023/05/22 02:37:02;;;;;;;40.05;33.45;;;15.60;99.90;;;;;;5117070;28;20490;-29
2023/05/22 02:39:28;;;;;;;45.40;34.05;;;15.50;99.90;;;;;;5116668;28;20360;-28
2023/05/22 02:41:54;;;;;;;43.95;34.80;;;15.50;99.90;;;;;;5116006;28;20044;-28
2023/05/22 02:44:20;;;;;;;45.25;36.00;;;15.50;99.90;;;;;;5116862;28;20051;-28
2023/05/22 02:46:46;;;;;;;44.03;34.80;;;15.50;99.90;;;;;;5115880;28;20154;-28
2023/05/22 02:49:12;;;;;;;46.80;35.42;;;15.60;99.90;;;;;;5116254;28;20144;-29
2023/05/22 02:51:38;;;;;;;41.20;34.90;;;15.60;99.90;;;;;;5116555;28;20048;-28
2023/05/22 02:54:04;;;;;;;43.75;36.20;;;15.60;99.90;;;;;;5117318;28;20382;-28
2023/05/22 02:56:30;;;;;;;42.28;34.33;;;15.50;99.90;;;;;;5115516;28;20131;-28
2023/05/22 02:58:56;;;;;;;45.78;35.85;;;15.60;99.90;;;;;;5116647;28;20135;-28
2023/05/22 03:01:22;;;;;;;44.92;36.25;;;15.60;99.90;;;;;;5116589;27;20039;-28
2023/05/22 03:03:48;;;;;;;49.10;37.78;;;15.60;99.90;;;;;;5117358;28;20104;-28
2023/05/22 03:06:14;;;;;;;42.80;35.55;;;15.50;99.90;;;;;;5091405;28;20097;-28
2023/05/22 03:08:42;;;;;;;51.00;36.75;;;15.50;99.90;;;;;;5110718;28;20057;-28
2023/05/22 03:11:08;;;;;;;50.28;34.90;;;15.50;99.90;;;;;;5113569;28;20047;-28
2023/05/22 03:13:35;;;;;;;45.10;36.15;;;15.50;99.90;;;;;;5115604;28;20448;-28
2023/05/22 03:16:01;;;;;;;44.25;33.45;;;15.50;99.90;;;;;;5115792;28;20047;-28
2023/05/22 03:18:26;;;;;;;49.80;36.63;;;15.40;99.90;;;;;;5115165;28;20050;-28
2023/05/22 03:20:52;;;;;;;48.03;36.95;;;15.40;99.90;;;;;;5111719;28;20054;-29
2023/05/22 03:23:19;;;;;;;51.60;36.80;;;15.40;99.90;;;;;;5104136;28;20044;-28
2023/05/22 03:25:46;;;;;;;51.33;38.38;;;15.40;99.90;;;;;;5114033;28;20108;-29
2023/05/22 03:28:13;;;;;;;53.92;38.25;;;15.40;99.90;;;;;;5116063;28;20414;-28
2023/05/22 03:30:38;;;;;;;47.83;36.55;;;15.40;99.90;;;;;;5111922;28;20037;-28
2023/05/22 03:33:04;;;;;;;46.78;38.33;;;15.40;99.90;;;;;;5096194;28;20193;-28
2023/05/22 03:35:29;;;;;;;50.58;36.55;;;15.40;99.90;;;;;;5095565;28;20045;-28
2023/05/22 03:37:55;;;;;;;51.17;37.15;;;15.30;99.90;;;;;;5095485;28;20502;-29
2023/05/22 03:40:21;;;;;;;55.05;39.10;;;15.30;99.90;;;;;;5077592;28;20051;-28
2023/05/22 03:42:48;;;;;;;54.42;38.53;;;15.30;99.90;;;;;;5102497;28;20040;-28
2023/05/22 03:45:14;;;;;;;49.78;38.38;;;15.30;99.90;;;;;;5114577;28;20054;-30
2023/05/22 03:47:39;;;;;;;49.58;38.35;;;15.30;99.90;;;;;;5115304;28;20134;-29
2023/05/22 03:50:06;;;;;;;57.95;39.92;;;15.20;99.90;;;;;;5115554;28;20051;-28
2023/05/22 03:52:31;;;;;;;54.78;39.03;;;15.20;99.90;;;;;;5114682;28;20391;-29
2023/05/22 03:54:57;;;;;;;63.65;42.45;;;15.20;99.90;;;;;;5115500;28;20096;-28
2023/05/22 03:57:23;;;;;;;52.95;40.22;;;15.20;99.90;;;;;;5115561;28;20040;-28
2023/05/22 03:59:49;;;;;;;60.60;40.75;;;15.20;99.90;;;;;;5115071;28;20040;-28
2023/05/22 04:02:15;;;;;;;52.38;39.80;;;15.20;99.90;;;;;;5114997;28;20410;-28
2023/05/22 04:04:44;;;;;;;56.13;39.45;;;15.20;99.90;;;;;;5098172;28;20054;-28
2023/05/22 04:07:12;;;;;;;53.95;39.28;;;15.20;99.90;;;;;;5111800;28;20048;-28
2023/05/22 04:09:38;;;;;;;52.05;38.60;;;15.20;99.90;;;;;;5112126;28;20418;-28
2023/05/22 04:12:05;;;;;;;58.72;39.95;;;15.20;99.90;;;;;;5113246;28;20118;-28
2023/05/22 04:14:31;;;;;;;55.20;40.65;;;15.30;99.90;;;;;;5115219;28;20454;-28
2023/05/22 04:16:58;;;;;;;52.95;38.80;;;15.30;99.90;;;;;;5113555;28;20149;-28
2023/05/22 04:19:23;;;;;;;54.55;40.22;;;15.30;99.90;;;;;;5113386;28;20039;-28
2023/05/22 04:21:49;;;;;;;43.15;38.30;;;15.40;99.90;;;;;;5114251;28;20566;-28
2023/05/22 04:24:15;;;;;;;49.30;34.88;;;15.40;99.90;;;;;;5112234;28;20054;-28
2023/05/22 04:26:41;;;;;;;51.65;37.38;;;15.50;99.90;;;;;;5114188;28;20410;-28
2023/05/22 04:29:09;;;;;;;50.33;37.55;;;15.60;99.90;;;;;;5106054;28;20097;-28
2023/05/22 04:31:37;;;;;;;47.55;35.17;;;15.60;99.90;;;;;;5113840;28;20043;-27
2023/05/22 04:34:04;;;;;;;42.38;32.92;;;15.70;99.90;;;;;;5108243;28;20044;-28
2023/05/22 04:36:29;;;;;;;41.55;32.80;;;15.70;99.90;;;;;;5094348;28;20083;-28
2023/05/22 04:38:55;;;;;;;40.10;31.20;;;15.80;99.90;;;;;;5110293;28;20078;-28
2023/05/22 04:41:25;;;;;;;38.53;30.02;;;15.80;99.90;;;;;;5110065;28;20047;-28
2023/05/22 04:43:51;;;;;;;37.22;30.05;;;15.80;99.90;;;;;;5114329;28;20533;-28
2023/05/22 04:46:17;;;;;;;36.40;27.85;;;15.90;99.90;;;;;;5113409;28;20046;-28
2023/05/22 04:48:43;;;;;;;32.97;28.48;;;15.90;99.90;;;;;;5112060;28;20474;-28
2023/05/22 04:51:09;;;;;;;34.88;28.33;;;15.90;99.90;;;;;;5103251;28;20061;-28
2023/05/22 04:53:37;;;;;;;36.38;27.30;;;16.00;99.90;;;;;;5106638;28;20080;-28
2023/05/22 04:56:03;;;;;;;40.67;26.60;;;16.00;99.90;;;;;;5104773;28;20048;-27
2023/05/22 04:58:29;;;;;;;33.20;27.00;;;16.10;99.90;;;;;;5114386;28;20047;-28
2023/05/22 05:00:56;;;;;;;30.15;24.90;;;16.10;99.90;;;;;;5104336;28;20168;-28
2023/05/22 05:03:24;;;;;;;28.63;24.55;;;16.10;99.90;;;;;;5093978;28;20043;-28
2023/05/22 05:05:50;;;;;;;34.22;24.92;;;16.20;99.90;;;;;;5108027;28;20381;-29
2023/05/22 05:08:16;;;;;;;30.17;24.00;;;16.20;99.90;;;;;;5112454;28;20047;-28
2023/05/22 05:10:42;;;;;;;33.03;24.50;;;16.20;99.90;;;;;;5108439;28;20048;-28
2023/05/22 05:13:08;;;;;;;31.73;21.85;;;16.30;99.90;;;;;;5100029;28;20165;-28
2023/05/22 05:15:34;;;;;;;27.92;19.17;;;16.30;99.90;;;;;;5113971;28;20055;-29
2023/05/22 05:18:00;;;;;;;26.90;20.33;;;16.30;99.90;;;;;;5110929;28;20043;-26
2023/05/22 05:20:26;;;;;;;24.08;19.05;;;16.40;99.90;;;;;;5113429;28;20035;-28
2023/05/22 05:22:52;;;;;;;31.10;19.60;;;16.50;99.90;;;;;;5100594;28;20100;-26
2023/05/22 05:25:17;;;;;;;24.70;17.90;;;16.60;99.90;;;;;;5104815;28;20043;-28
2023/05/22 05:27:43;;;;;;;23.52;16.63;;;16.60;99.90;;;;;;5113980;28;20127;-28
2023/05/22 05:30:09;;;;;;;22.55;16.27;;;16.60;99.90;;;;;;5096267;28;20048;-28
2023/05/22 05:32:35;;;;;;;19.45;13.25;;;16.60;99.90;;;;;;5093281;28;20044;-28
2023/05/22 05:35:01;;;;;;;20.35;13.82;;;16.60;99.90;;;;;;5075474;28;20044;-28
2023/05/22 05:37:27;;;;;;;23.50;14.55;;;16.50;99.90;;;;;;5093014;28;20094;-29
2023/05/22 05:39:52;;;;;;;23.77;13.25;;;16.50;99.90;;;;;;5093654;28;20096;-28
2023/05/22 05:42:18;;;;;;;20.85;14.32;;;16.40;99.90;;;;;;5107927;28;20483;-28
2023/05/22 05:44:44;;;;;;;23.15;13.52;;;16.30;99.90;;;;;;5113930;28;20051;-28
2023/05/22 05:47:10;;;;;;;24.25;13.77;;;16.20;99.90;;;;;;5113714;28;20043;-27
2023/05/22 05:49:35;;;;;;;23.00;12.52;;;16.10;99.90;;;;;;5114450;28;20052;-28
2023/05/22 05:52:01;;;;;;;23.10;12.68;;;16.00;99.90;;;;;;5114619;28;20044;-26
2023/05/22 05:54:27;;;;;;;28.52;14.10;;;15.90;99.90;;;;;;5112622;28;20483;-25
2023/05/22 05:56:53;;;;;;;28.40;15.63;;;15.80;99.90;;;;;;5129674;28;20086;-25
2023/05/22 05:59:18;;;;;;;27.95;16.67;;;15.60;99.90;;;;;;5113798;28;20504;-25
2023/05/22 06:01:45;;;;;;;25.88;15.23;;;15.60;99.90;;;;;;5112657;28;20071;-24
2023/05/22 06:04:12;;;;;;;25.13;16.42;;;15.50;99.90;;;;;;5114548;28;20382;-24
2023/05/22 06:06:38;;;;;;;24.67;17.02;;;15.50;99.90;;;;;;5085777;28;20050;-24
2023/05/22 06:09:05;;;;;;;24.92;16.00;;;15.60;99.90;;;;;;5111882;28;20094;-24
2023/05/22 06:11:31;;;;;;;25.73;16.58;;;15.60;99.90;;;;;;5102551;28;20085;-24
2023/05/22 06:14:01;;;;;;;33.72;18.52;;;15.60;99.90;;;;;;5112487;28;20047;-24
2023/05/22 06:16:27;;;;;;;30.58;14.77;;;15.60;99.90;;;;;;5103833;28;20109;-24
2023/05/22 06:18:55;;;;;;;28.50;12.38;;;15.70;99.90;;;;;;5122908;28;20039;-25
2023/05/22 06:21:21;;;;;;;25.83;12.77;;;15.70;99.90;;;;;;5092945;28;20510;-24
2023/05/22 06:23:48;;;;;;;31.60;12.88;;;15.70;99.90;;;;;;5104263;28;20066;-24
2023/05/22 06:26:15;;;;;;;26.15;11.25;;;15.70;99.90;;;;;;5114065;28;20047;-23
2023/05/22 06:28:41;;;;;;;29.75;11.55;;;15.80;99.90;;;;;;5109040;28;20067;-24
2023/05/22 06:31:08;;;;;;;24.88;10.75;;;15.70;99.90;;;;;;5116460;28;20082;-24
2023/05/22 06:33:35;;;;;;;30.63;11.68;;;15.70;99.90;;;;;;5112115;28;20048;-24
2023/05/22 06:36:02;;;;;;;28.17;11.88;;;15.60;99.90;;;;;;5084113;28;20070;-24
2023/05/22 06:38:28;;;;;;;26.60;12.95;;;15.60;99.90;;;;;;5106713;28;20121;-25
2023/05/22 06:40:54;;;;;;;21.85;10.63;;;15.60;99.90;;;;;;5114084;28;20084;-24
2023/05/22 06:43:20;;;;;;;23.98;10.77;;;15.60;99.90;;;;;;5095807;28;20055;-25
2023/05/22 06:45:45;;;;;;;28.75;10.93;;;15.60;99.90;;;;;;5097088;28;20584;-25
2023/05/22 06:48:11;;;;;;;24.73;12.07;;;15.70;99.90;;;;;;5096492;28;20096;-25
2023/05/22 06:50:37;;;;;;;24.10;10.15;;;15.70;99.90;;;;;;5109228;28;20048;-25
2023/05/22 06:53:02;;;;;;;27.27;10.30;;;15.80;99.90;;;;;;5116740;28;20124;-25
2023/05/22 06:55:28;;;;;;;25.75;9.45;;;15.90;99.90;;;;;;5115626;28;20055;-25
2023/05/22 06:57:54;;;;;;;23.55;10.52;;;15.80;99.90;;;;;;5116708;28;20048;-25
2023/05/22 07:00:20;;;;;;;22.85;9.32;;;15.80;99.90;;;;;;5116585;28;20487;-26
2023/05/22 07:02:45;;;;;;;26.58;11.20;;;15.80;99.90;;;;;;5117430;28;20071;-25
2023/05/22 07:05:11;;;;;;;31.63;11.63;;;15.80;99.90;;;;;;5117141;28;20462;-25
2023/05/22 07:07:37;;;;;;;23.38;9.63;;;15.70;99.90;;;;;;5116041;28;20083;-26
2023/05/22 07:10:02;;;;;;;31.63;11.38;;;15.70;99.90;;;;;;5113503;28;20043;-25
2023/05/22 07:12:28;;;;;;;22.60;10.23;;;15.70;99.90;;;;;;5113608;27;20043;-24
2023/05/22 07:14:55;;;;;;;17.67;9.63;;;15.60;99.90;;;;;;5103133;28;20127;-25
2023/05/22 07:17:21;;;;;;;15.27;8.63;;;15.60;99.90;;;;;;5115158;28;20043;-26
2023/05/22 07:19:47;;;;;;;19.80;8.45;;;15.60;99.90;;;;;;5104360;28;20036;-26
2023/05/22 07:22:14;;;;;;;15.25;8.88;;;15.70;99.90;;;;;;5094967;28;20044;-26
2023/05/22 07:24:39;;;;;;;17.35;7.82;;;15.80;99.90;;;;;;5109328;28;20067;-26
2023/05/22 07:27:05;;;;;;;16.83;7.63;;;15.80;99.90;;;;;;5115924;28;20044;-25
2023/05/22 07:29:31;;;;;;;15.63;7.45;;;16.00;99.90;;;;;;5116115;28;20104;-26
2023/05/22 07:31:57;;;;;;;10.30;5.95;;;16.00;99.90;;;;;;5115973;28;20043;-26
2023/05/22 07:34:28;;;;;;;14.85;6.72;;;16.10;99.90;;;;;;5115020;28;20051;-25
2023/05/22 07:36:54;;;;;;;8.82;5.85;;;16.20;99.90;;;;;;5100192;28;20047;-27
2023/05/22 07:39:20;;;;;;;10.20;5.47;;;16.20;99.90;;;;;;5077655;28;20395;-27
2023/05/22 07:41:49;;;;;;;9.15;6.07;;;16.30;99.90;;;;;;5099599;28;20040;-28
2023/05/22 07:44:15;;;;;;;10.10;6.00;;;16.30;99.90;;;;;;5095446;28;20414;-27
2023/05/22 07:46:41;;;;;;;9.70;5.22;;;16.40;99.90;;;;;;5094663;28;20036;-27
2023/05/22 07:49:06;;;;;;;12.32;5.50;;;16.30;99.90;;;;;;5095901;28;20062;-27
2023/05/22 07:51:32;;;;;;;13.55;5.97;;;16.30;99.90;;;;;;5095599;28;20134;-27
2023/05/22 07:53:58;;;;;;;11.77;6.35;;;16.30;99.90;;;;;;5107585;28;20040;-27
2023/05/22 07:56:27;;;;;;;10.93;6.28;;;16.30;99.90;;;;;;5115848;28;20043;-27
2023/05/22 07:58:53;;;;;;;10.52;6.93;;;16.30;99.90;;;;;;5114334;28;20039;-27
2023/05/22 08:01:18;;;;;;;12.55;5.78;;;16.30;99.90;;;;;;5115516;28;20063;-27
2023/05/22 08:03:44;;;;;;;16.42;7.20;;;16.30;99.90;;;;;;5098244;28;20079;-27
2023/05/22 08:06:11;;;;;;;12.80;6.78;;;16.30;99.90;;;;;;5094990;28;20044;-27
2023/05/22 08:08:36;;;;;;;10.23;6.82;;;16.20;99.90;;;;;;5097130;28;20051;-27
2023/05/22 08:11:02;;;;;;;18.33;7.72;;;16.20;99.90;;;;;;5094811;28;20387;-27
2023/05/22 08:13:28;;;;;;;15.98;7.45;;;16.20;99.90;;;;;;5101071;28;20039;-27
2023/05/22 08:15:54;;;;;;;16.48;7.53;;;16.10;99.90;;;;;;5113731;28;20135;-27
2023/05/22 08:18:21;;;;;;;14.65;7.18;;;16.10;99.90;;;;;;5115463;28;20040;-27
2023/05/22 08:20:46;;;;;;;11.23;7.07;;;16.10;99.90;;;;;;5115133;28;20398;-28
2023/05/22 08:23:12;;;;;;;13.85;7.18;;;16.10;99.90;;;;;;5110229;28;20073;-27
2023/05/22 08:25:38;;;;;;;12.20;6.80;;;16.10;99.90;;;;;;5093697;28;20051;-27
2023/05/22 08:28:05;;;;;;;12.68;6.97;;;16.00;99.90;;;;;;5107060;28;20043;-27
2023/05/22 08:30:30;;;;;;;16.30;8.07;;;15.90;99.90;;;;;;5110280;28;20039;-27
2023/05/22 08:32:56;;;;;;;15.48;8.02;;;16.00;99.90;;;;;;5101866;28;20058;-27
2023/05/22 08:35:22;;;;;;;14.95;8.10;;;15.90;99.90;;;;;;5108653;28;20044;-27
2023/05/22 08:37:48;;;;;;;14.95;7.72;;;15.90;99.90;;;;;;5104765;28;20043;-27
2023/05/22 08:40:14;;;;;;;15.82;8.52;;;15.90;99.90;;;;;;5099242;28;20478;-27
2023/05/22 08:42:41;;;;;;;15.93;7.82;;;16.00;99.90;;;;;;5087597;28;20044;-28
2023/05/22 08:45:08;;;;;;;12.18;8.52;;;16.00;99.90;;;;;;5113657;28;20505;-27
2023/05/22 08:47:35;;;;;;;14.15;9.00;;;16.00;99.90;;;;;;5097175;28;20430;-27
2023/05/22 08:50:02;;;;;;;14.48;7.65;;;16.00;99.90;;;;;;5094102;28;20050;-28
2023/05/22 08:52:40;;;;;;;13.68;7.75;;;16.00;99.90;;;;;;5100978;28;20044;-27
2023/05/22 08:55:07;;;;;;;11.40;7.78;;;16.00;99.90;;;;;;5103845;28;20043;-27
2023/05/22 08:57:35;;;;;;;16.90;9.45;;;16.10;99.90;;;;;;5104818;28;20071;-27
2023/05/22 09:00:00;;;;;;;13.25;7.95;;;16.10;99.90;;;;;;5105814;28;20401;-27
2023/05/22 09:02:27;;;;;;;14.27;7.72;;;16.10;99.90;;;;;;5113410;28;20126;-28
2023/05/22 09:04:52;;;;;;;12.73;8.15;;;16.20;99.90;;;;;;5113281;28;20055;-27
2023/05/22 09:07:20;;;;;;;13.60;9.18;;;16.30;99.90;;;;;;5109391;28;20040;-27
2023/05/22 09:09:46;;;;;;;12.57;8.63;;;16.30;99.90;;;;;;5107950;28;20087;-25
2023/05/22 09:12:12;;;;;;;10.13;8.32;;;16.40;99.90;;;;;;5113322;28;20079;-27
2023/05/22 09:14:42;;;;;;;20.40;9.20;;;16.60;99.90;;;;;;5114193;28;20440;-27
2023/05/22 09:17:10;;;;;;;11.65;9.02;;;16.70;99.90;;;;;;5113619;28;20047;-23
2023/05/22 09:19:35;;;;;;;17.67;9.70;;;16.80;99.90;;;;;;5105181;28;20078;-27
2023/05/22 09:22:03;;;;;;;13.00;8.40;;;17.00;99.90;;;;;;5100796;28;20492;-26
2023/05/22 09:24:29;;;;;;;18.65;9.40;;;17.10;99.90;;;;;;5112808;28;20047;-27
2023/05/22 09:26:55;;;;;;;15.88;8.75;;;17.30;99.90;;;;;;5099713;28;20052;-28
2023/05/22 09:29:21;;;;;;;18.92;9.50;;;17.50;99.90;;;;;;5096923;28;20097;-28
2023/05/22 09:31:47;;;;;;;15.40;8.63;;;17.60;99.90;;;;;;5112642;28;20082;-27
2023/05/22 09:34:13;;;;;;;13.38;8.95;;;17.90;99.90;;;;;;5108158;28;20039;-28
2023/05/22 09:36:39;;;;;;;12.38;8.82;;;18.10;99.90;;;;;;5109121;28;20570;-28
2023/05/22 09:39:05;;;;;;;12.27;7.72;;;18.50;99.90;;;;;;5113735;28;20059;-28
2023/05/22 09:41:38;;;;;;;11.05;7.85;;;19.10;99.90;;;;;;5113919;28;20368;-28
2023/05/22 09:44:13;;;;;;;;;;;20.10;99.90;;;;;;5114427;28;20058;-28
2023/05/22 09:46:46;;;;;;;12.10;8.35;;;21.20;99.90;;;;;;5102900;28;19927;-28
2023/05/22 09:49:11;;;;;;;13.68;7.55;;;22.20;99.90;;;;;;5112815;28;20052;-28
2023/05/22 09:51:40;;;;;;;12.82;7.43;;;22.70;1.00;;;;;;5113783;28;20043;-28
2023/05/22 09:54:08;;;;;;;12.52;6.97;;;22.80;59.70;;;;;;5113809;28;20047;-28
2023/05/22 09:56:35;;;;;;;12.43;7.72;;;22.80;1.00;;;;;;5106472;28;20506;-29
2023/05/22 09:59:04;;;;;;;14.20;7.88;;;22.20;99.90;;;;;;5095919;28;20389;-29
2023/05/22 10:01:30;;;;;;;19.02;9.18;;;21.80;2.80;;;;;;5097443;28;20036;-28
2023/05/22 10:03:56;;;;;;;12.77;7.53;;;21.70;99.90;;;;;;5097362;28;20052;-28
2023/05/22 10:06:23;;;;;;;17.30;9.63;;;21.90;99.90;;;;;;5098294;28;20080;-28
2023/05/22 10:09:00;;;;;;;14.00;8.75;;;22.10;1.00;;;;;;5096878;28;20056;-27
2023/05/22 10:11:30;;;;;;;15.35;8.48;;;22.60;99.90;;;;;;5097201;28;20040;-28
2023/05/22 10:13:57;;;;;;;13.82;8.52;;;23.20;99.90;;;;;;5096090;28;20047;-28
2023/05/22 10:16:25;;;;;;;13.68;8.15;;;23.50;81.50;;;;;;5130345;27;20402;-28
2023/05/22 10:18:52;;;;;;;16.40;9.80;;;23.80;99.90;;;;;;5097692;28;20048;-28
2023/05/22 10:21:19;;;;;;;15.57;8.68;;;23.70;99.90;;;;;;5097099;28;20101;-28
2023/05/22 10:23:46;;;;;;;11.90;8.48;;;23.70;99.90;;;;;;5096852;28;20054;-28
2023/05/22 10:26:12;;;;;;;12.85;8.65;;;23.80;99.90;;;;;;5096717;28;20392;-28
2023/05/22 10:28:41;;;;;;;19.15;8.57;;;23.60;5.90;;;;;;5097869;28;20406;-28
2023/05/22 10:31:28;;;;;;;18.35;9.30;;;23.50;1.00;;;;;;5095968;28;20399;-28
2023/05/22 10:34:08;;;;;;;13.25;8.07;;;23.50;1.00;;;;;;5097444;28;20040;-28
2023/05/22 10:37:12;;;;;;;16.83;9.48;;;23.50;1.00;;;;;;5097122;28;20380;-29
2023/05/22 10:39:47;;;;;;;13.18;8.98;;;23.60;44.40;;;;;;5095286;28;20052;-28
2023/05/22 10:42:13;;;;;;;16.45;8.88;;;23.60;99.90;;;;;;5117083;28;20039;-28
2023/05/22 10:44:39;;;;;;;18.80;8.90;;;23.60;1.00;;;;;;5116985;28;20043;-28
2023/05/22 10:47:12;;;;;;;14.10;9.02;;;23.70;1.00;;;;;;5116958;28;20040;-28
2023/05/22 10:49:43;;;;;;;15.80;9.40;;;23.70;99.90;;;;;;5109378;28;20051;-27
2023/05/22 10:52:09;;;;;;;16.25;10.27;;;24.00;99.90;;;;;;5104605;28;20040;-28
2023/05/22 10:54:45;;;;;;;16.77;9.85;;;24.20;99.90;;;;;;5116067;28;20093;-28
2023/05/22 10:57:17;;;;;;;17.60;10.43;;;24.10;1.00;;;;;;5112375;28;20043;-28
2023/05/22 10:59:46;;;;;;;23.10;10.95;;;24.00;1.00;;;;;;5096254;28;20052;-28
2023/05/22 11:02:39;;;;;;;19.40;11.27;;;23.70;18.40;;;;;;5096305;28;20040;-29
2023/05/22 11:05:17;;;;;;;16.90;10.73;;;23.30;1.00;;;;;;5109581;28;20083;-28
2023/05/22 11:07:43;;;;;;;15.40;9.23;;;23.10;1.00;;;;;;5097465;28;20044;-27
2023/05/22 11:10:08;;;;;;;23.08;12.05;;;23.00;99.90;;;;;;5096099;28;20482;-29
2023/05/22 11:12:36;;;;;;;20.67;11.35;;;22.50;99.90;;;;;;5096051;28;20083;-28
2023/05/22 11:15:07;;;;;;;15.57;10.27;;;22.30;1.00;;;;;;5095026;28;20048;-28
2023/05/22 11:17:50;;;;;;;19.85;11.27;;;22.20;1.00;;;;;;5106628;28;20124;-29
2023/05/22 11:20:23;;;;;;;20.83;11.07;;;22.30;99.90;;;;;;5115684;28;20052;-29
2023/05/22 11:23:00;;;;;;;16.98;10.52;;;23.30;99.90;;;;;;5116130;28;20051;-28
2023/05/22 11:25:27;;;;;;;17.30;10.27;;;24.50;12.20;;;;;;5116165;28;20087;-28
2023/05/22 11:27:54;;;;;;;19.38;10.60;;;25.60;99.90;;;;;;5114783;28;20122;-29
2023/05/22 11:30:23;;;;;;;14.65;11.35;;;26.40;1.00;;;;;;5116035;28;20043;-28
2023/05/22 11:32:49;;;;;;;17.58;11.05;;;27.00;99.90;;;;;;5109192;28;20079;-28
2023/05/22 11:35:22;;;;;;;18.95;10.90;;;27.30;99.90;;;;;;5101023;28;20145;-29
2023/05/22 11:37:49;;;;;;;15.20;10.15;;;27.60;1.00;;;;;;5109508;28;20402;-28
2023/05/22 11:40:25;;;;;;;19.00;11.35;;;27.40;1.00;;;;;;5113452;28;20100;-28
2023/05/22 11:42:55;;;;;;;18.48;11.73;;;26.70;1.00;;;;;;5096048;28;20052;-29
2023/05/22 11:45:21;;;;;;;14.95;10.77;;;26.40;1.00;;;;;;5096699;28;20040;-28
2023/05/22 11:47:50;;;;;;;14.82;11.73;;;26.10;1.00;;;;;;5095226;28;20500;-29
2023/05/22 11:50:16;;;;;;;17.95;13.27;;;25.90;1.00;;;;;;5095717;28;20056;-28
2023/05/22 11:52:42;;;;;;;17.45;10.52;;;26.40;1.00;;;;;;5106006;28;20040;-30
2023/05/22 11:55:09;;;;;;;16.58;11.35;;;26.00;99.90;;;;;;5114939;28;20047;-28
2023/05/22 11:57:36;;;;;;;16.27;11.10;;;25.90;32.00;;;;;;5115620;28;20058;-28
2023/05/22 12:00:06;;;;;;;18.63;11.23;;;26.40;1.00;;;;;;5115563;28;20054;-28
2023/05/22 12:02:32;;;;;;;15.88;11.85;;;26.60;1.00;;;;;;5109913;28;20083;-28
2023/05/22 12:04:58;;;;;;;16.50;12.43;;;26.10;1.00;;;;;;5114811;28;20051;-28
2023/05/22 12:07:26;;;;;;;15.23;11.63;;;25.60;1.00;;;;;;5115415;28;20047;-28
2023/05/22 12:09:54;;;;;;;19.63;12.80;;;25.50;49.40;;;;;;5114206;28;20394;-29
2023/05/22 12:12:20;;;;;;;17.67;12.75;;;25.40;99.90;;;;;;5114181;28;20039;-28
2023/05/22 12:14:47;;;;;;;17.30;13.15;;;25.20;99.90;;;;;;5113405;27;20040;-28
2023/05/22 12:17:14;;;;;;;19.88;13.27;;;25.90;99.90;;;;;;5114823;28;20402;-29
2023/05/22 12:19:41;;;;;;;20.73;13.10;;;25.80;99.90;;;;;;5115171;28;20054;-29
2023/05/22 12:22:08;;;;;;;21.75;12.60;;;25.40;99.90;;;;;;5113152;28;20039;-29
2023/05/22 12:24:41;;;;;;;17.08;11.13;;;25.50;95.70;;;;;;5115088;28;20047;-29
2023/05/22 12:27:11;;;;;;;19.00;11.48;;;23.70;99.90;;;;;;5115771;28;20043;-29
2023/05/22 12:29:41;;;;;;;18.42;11.30;;;22.60;99.90;;;;;;5115011;28;20569;-28
2023/05/22 12:32:09;;;;;;;19.20;11.15;;;22.50;99.90;;;;;;5114809;28;20046;-28
2023/05/22 12:34:41;;;;;;;21.23;11.68;;;23.00;13.30;;;;;;5131654;27;20083;-28